sensor_id;sensor_type;location;lat;lon;timestamp;temperature;humidity
22008;DHT22;11168;56.976;24.168;2023-07-24T00:00:07;14.60;99.90
22008;DHT22;11168;56.976;24.168;2023-07-24T00:02:35;14.50;99.90
22008;DHT22;11168;56.976;24.168;2023-07-24T00:05:02;14.50;99.90
22008;DHT22;11168;56.976;24.168;2023-07-24T00:07:29;14.50;99.90
22008;DHT22;11168;56.976;24.168;2023-07-24T00:09:56;14.50;99.90
22008;DHT22;11168;56.976;24.168;2023-07-24T00:12:23;14.50;99.90
22008;DHT22;11168;56.976;24.168;2023-07-24T00:14:52;14.40;99.90
22008;DHT22;11168;56.976;24.168;2023-07-24T00:17:19;14.40;99.90
22008;DHT22;11168;56.976;24.168;2023-07-24T00:19:46;14.40;99.90
22008;DHT22;11168;56.976;24.168;2023-07-24T00:22:13;14.30;99.90
22008;DHT22;11168;56.976;24.168;2023-07-24T00:24:40;14.40;99.90
22008;DHT22;11168;56.976;24.168;2023-07-24T00:27:07;14.50;99.90
22008;DHT22;11168;56.976;24.168;2023-07-24T00:29:34;14.40;99.90
22008;DHT22;11168;56.976;24.168;2023-07-24T00:32:01;14.40;99.90
22008;DHT22;11168;56.976;24.168;2023-07-24T00:34:28;14.40;99.90
22008;DHT22;11168;56.976;24.168;2023-07-24T00:36:55;14.40;99.90
22008;DHT22;11168;56.976;24.168;2023-07-24T00:39:22;14.50;99.90
22008;DHT22;11168;56.976;24.168;2023-07-24T00:41:49;14.40;99.90
22008;DHT22;11168;56.976;24.168;2023-07-24T00:44:18;14.40;99.90
22008;DHT22;11168;56.976;24.168;2023-07-24T00:46:45;14.40;99.90
22008;DHT22;11168;56.976;24.168;2023-07-24T00:49:13;14.30;99.90
22008;DHT22;11168;56.976;24.168;2023-07-24T00:51:40;14.40;99.90
22008;DHT22;11168;56.976;24.168;2023-07-24T00:54:07;14.30;99.90
22008;DHT22;11168;56.976;24.168;2023-07-24T00:56:35;14.30;99.90
22008;DHT22;11168;56.976;24.168;2023-07-24T00:59:02;14.30;99.90
22008;DHT22;11168;56.976;24.168;2023-07-24T01:01:29;14.20;99.90
22008;DHT22;11168;56.976;24.168;2023-07-24T01:03:57;14.20;99.90
22008;DHT22;11168;56.976;24.168;2023-07-24T01:06:24;14.30;99.90
22008;DHT22;11168;56.976;24.168;2023-07-24T01:08:51;14.30;99.90
22008;DHT22;11168;56.976;24.168;2023-07-24T01:11:21;14.20;99.90
22008;DHT22;11168;56.976;24.168;2023-07-24T01:13:59;14.20;99.90
22008;DHT22;11168;56.976;24.168;2023-07-24T01:16:37;14.20;99.90
22008;DHT22;11168;56.976;24.168;2023-07-24T01:19:20;14.10;99.90
22008;DHT22;11168;56.976;24.168;2023-07-24T01:25:32;14.20;99.90
22008;DHT22;11168;56.976;24.168;2023-07-24T01:28:07;14.20;99.90
22008;DHT22;11168;56.976;24.168;2023-07-24T01:30:36;14.10;99.90
22008;DHT22;11168;56.976;24.168;2023-07-24T01:33:03;14.10;99.90
22008;DHT22;11168;56.976;24.168;2023-07-24T01:35:32;14.10;99.90
22008;DHT22;11168;56.976;24.168;2023-07-24T01:38:00;14.20;99.90
22008;DHT22;11168;56.976;24.168;2023-07-24T01:40:27;14.10;99.90
22008;DHT22;11168;56.976;24.168;2023-07-24T01:42:54;14.10;99.90
22008;DHT22;11168;56.976;24.168;2023-07-24T01:45:21;14.10;99.90
22008;DHT22;11168;56.976;24.168;2023-07-24T01:47:48;14.10;99.90
22008;DHT22;11168;56.976;24.168;2023-07-24T01:50:15;14.10;99.90
22008;DHT22;11168;56.976;24.168;2023-07-24T01:52:42;14.10;99.90
22008;DHT22;11168;56.976;24.168;2023-07-24T01:55:11;14.10;99.90
22008;DHT22;11168;56.976;24.168;2023-07-24T01:57:38;14.00;99.90
22008;DHT22;11168;56.976;24.168;2023-07-24T02:00:05;14.20;99.90
22008;DHT22;11168;56.976;24.168;2023-07-24T02:02:32;14.10;99.90
22008;DHT22;11168;56.976;24.168;2023-07-24T02:05:00;14.00;99.90
22008;DHT22;11168;56.976;24.168;2023-07-24T02:07:27;14.00;99.90
22008;DHT22;11168;56.976;24.168;2023-07-24T02:09:54;13.90;99.90
22008;DHT22;11168;56.976;24.168;2023-07-24T02:12:23;13.90;99.90
22008;DHT22;11168;56.976;24.168;2023-07-24T02:14:50;14.00;99.90
22008;DHT22;11168;56.976;24.168;2023-07-24T02:17:18;14.00;99.90
22008;DHT22;11168;56.976;24.168;2023-07-24T02:19:45;13.90;99.90
22008;DHT22;11168;56.976;24.168;2023-07-24T02:22:12;13.90;99.90
22008;DHT22;11168;56.976;24.168;2023-07-24T02:24:40;13.80;99.90
22008;DHT22;11168;56.976;24.168;2023-07-24T02:27:07;13.90;99.90
22008;DHT22;11168;56.976;24.168;2023-07-24T02:29:34;13.80;99.90
22008;DHT22;11168;56.976;24.168;2023-07-24T02:32:01;13.90;99.90
22008;DHT22;11168;56.976;24.168;2023-07-24T02:34:28;13.80;99.90
22008;DHT22;11168;56.976;24.168;2023-07-24T02:36:55;13.80;99.90
22008;DHT22;11168;56.976;24.168;2023-07-24T02:39:22;13.90;99.90
22008;DHT22;11168;56.976;24.168;2023-07-24T02:41:49;13.80;99.90
22008;DHT22;11168;56.976;24.168;2023-07-24T02:44:16;13.90;99.90
22008;DHT22;11168;56.976;24.168;2023-07-24T02:46:43;14.00;99.90
22008;DHT22;11168;56.976;24.168;2023-07-24T02:49:10;14.10;99.90
22008;DHT22;11168;56.976;24.168;2023-07-24T02:51:37;14.00;99.90
22008;DHT22;11168;56.976;24.168;2023-07-24T02:54:04;14.00;99.90
22008;DHT22;11168;56.976;24.168;2023-07-24T02:56:33;14.10;99.90
22008;DHT22;11168;56.976;24.168;2023-07-24T02:59:00;14.10;99.90
22008;DHT22;11168;56.976;24.168;2023-07-24T03:01:27;14.20;99.90
22008;DHT22;11168;56.976;24.168;2023-07-24T03:03:54;14.10;99.90
22008;DHT22;11168;56.976;24.168;2023-07-24T03:06:22;14.20;99.90
22008;DHT22;11168;56.976;24.168;2023-07-24T03:08:49;14.20;99.90
22008;DHT22;11168;56.976;24.168;2023-07-24T03:11:16;14.10;99.90
22008;DHT22;11168;56.976;24.168;2023-07-24T03:13:43;14.10;99.90
22008;DHT22;11168;56.976;24.168;2023-07-24T03:16:10;14.20;99.90
22008;DHT22;11168;56.976;24.168;2023-07-24T03:18:37;14.20;99.90
22008;DHT22;11168;56.976;24.168;2023-07-24T03:21:04;14.30;99.90
22008;DHT22;11168;56.976;24.168;2023-07-24T03:23:31;14.40;99.90
22008;DHT22;11168;56.976;24.168;2023-07-24T03:25:58;14.40;99.90
22008;DHT22;11168;56.976;24.168;2023-07-24T03:28:25;14.60;99.90
22008;DHT22;11168;56.976;24.168;2023-07-24T03:30:54;14.60;99.90
22008;DHT22;11168;56.976;24.168;2023-07-24T03:33:21;14.60;99.90
22008;DHT22;11168;56.976;24.168;2023-07-24T03:35:48;14.60;99.90
22008;DHT22;11168;56.976;24.168;2023-07-24T03:38:15;14.60;99.90
22008;DHT22;11168;56.976;24.168;2023-07-24T03:40:42;14.70;99.90
22008;DHT22;11168;56.976;24.168;2023-07-24T03:43:10;14.70;99.90
22008;DHT22;11168;56.976;24.168;2023-07-24T03:45:37;14.70;99.90
22008;DHT22;11168;56.976;24.168;2023-07-24T03:48:05;14.80;99.90
22008;DHT22;11168;56.976;24.168;2023-07-24T03:50:32;14.80;99.90
22008;DHT22;11168;56.976;24.168;2023-07-24T03:52:59;14.70;99.90
22008;DHT22;11168;56.976;24.168;2023-07-24T03:55:26;14.70;99.90
22008;DHT22;11168;56.976;24.168;2023-07-24T03:57:56;14.60;99.90
22008;DHT22;11168;56.976;24.168;2023-07-24T04:00:23;14.80;99.90
22008;DHT22;11168;56.976;24.168;2023-07-24T04:02:50;14.90;99.90
22008;DHT22;11168;56.976;24.168;2023-07-24T04:05:17;14.80;99.90
22008;DHT22;11168;56.976;24.168;2023-07-24T04:07:44;14.80;99.90
22008;DHT22;11168;56.976;24.168;2023-07-24T04:10:12;14.90;99.90
22008;DHT22;11168;56.976;24.168;2023-07-24T04:12:39;14.90;99.90
22008;DHT22;11168;56.976;24.168;2023-07-24T04:15:06;15.00;99.90
22008;DHT22;11168;56.976;24.168;2023-07-24T04:17:35;15.00;99.90
22008;DHT22;11168;56.976;24.168;2023-07-24T04:20:03;15.10;99.90
22008;DHT22;11168;56.976;24.168;2023-07-24T04:22:30;15.10;99.90
22008;DHT22;11168;56.976;24.168;2023-07-24T04:24:57;15.30;99.90
22008;DHT22;11168;56.976;24.168;2023-07-24T04:27:24;15.30;99.90
22008;DHT22;11168;56.976;24.168;2023-07-24T04:29:52;15.50;99.90
22008;DHT22;11168;56.976;24.168;2023-07-24T04:32:19;15.50;99.90
22008;DHT22;11168;56.976;24.168;2023-07-24T04:34:46;15.50;99.90
22008;DHT22;11168;56.976;24.168;2023-07-24T04:37:13;15.40;99.90
22008;DHT22;11168;56.976;24.168;2023-07-24T04:39:40;15.40;99.90
22008;DHT22;11168;56.976;24.168;2023-07-24T04:42:07;15.40;99.90
22008;DHT22;11168;56.976;24.168;2023-07-24T04:44:35;15.40;99.90
22008;DHT22;11168;56.976;24.168;2023-07-24T04:47:02;15.50;99.90
22008;DHT22;11168;56.976;24.168;2023-07-24T04:49:30;15.60;99.90
22008;DHT22;11168;56.976;24.168;2023-07-24T04:51:57;15.70;99.90
22008;DHT22;11168;56.976;24.168;2023-07-24T04:54:24;15.80;99.90
22008;DHT22;11168;56.976;24.168;2023-07-24T04:56:51;15.80;99.90
22008;DHT22;11168;56.976;24.168;2023-07-24T04:59:18;15.80;99.90
22008;DHT22;11168;56.976;24.168;2023-07-24T05:01:46;15.90;99.90
22008;DHT22;11168;56.976;24.168;2023-07-24T05:04:14;16.10;99.90
22008;DHT22;11168;56.976;24.168;2023-07-24T05:06:41;16.10;99.90
22008;DHT22;11168;56.976;24.168;2023-07-24T05:09:09;16.00;99.90
22008;DHT22;11168;56.976;24.168;2023-07-24T05:11:36;15.90;99.90
22008;DHT22;11168;56.976;24.168;2023-07-24T05:14:02;15.80;99.90
22008;DHT22;11168;56.976;24.168;2023-07-24T05:16:31;15.80;99.90
22008;DHT22;11168;56.976;24.168;2023-07-24T05:18:58;15.80;99.90
22008;DHT22;11168;56.976;24.168;2023-07-24T05:21:25;15.80;99.90
22008;DHT22;11168;56.976;24.168;2023-07-24T05:23:52;15.80;99.90
22008;DHT22;11168;56.976;24.168;2023-07-24T05:26:19;16.00;99.90
22008;DHT22;11168;56.976;24.168;2023-07-24T05:28:48;16.00;99.90
22008;DHT22;11168;56.976;24.168;2023-07-24T05:31:15;16.00;99.90
22008;DHT22;11168;56.976;24.168;2023-07-24T05:33:43;16.00;99.90
22008;DHT22;11168;56.976;24.168;2023-07-24T05:36:11;16.00;99.90
22008;DHT22;11168;56.976;24.168;2023-07-24T05:38:38;16.00;99.90
22008;DHT22;11168;56.976;24.168;2023-07-24T05:41:06;16.30;99.90
22008;DHT22;11168;56.976;24.168;2023-07-24T05:43:33;16.30;99.90
22008;DHT22;11168;56.976;24.168;2023-07-24T05:46:00;16.20;99.90
22008;DHT22;11168;56.976;24.168;2023-07-24T05:48:27;16.10;99.90
22008;DHT22;11168;56.976;24.168;2023-07-24T05:50:55;16.00;99.90
22008;DHT22;11168;56.976;24.168;2023-07-24T05:53:22;16.00;99.90
22008;DHT22;11168;56.976;24.168;2023-07-24T05:55:57;16.20;99.90
22008;DHT22;11168;56.976;24.168;2023-07-24T05:58:24;16.20;99.90
22008;DHT22;11168;56.976;24.168;2023-07-24T06:00:52;16.50;99.90
22008;DHT22;11168;56.976;24.168;2023-07-24T06:03:19;16.40;99.90
22008;DHT22;11168;56.976;24.168;2023-07-24T06:05:47;16.30;99.90
22008;DHT22;11168;56.976;24.168;2023-07-24T06:08:17;16.10;99.90
22008;DHT22;11168;56.976;24.168;2023-07-24T06:10:48;16.00;99.90
22008;DHT22;11168;56.976;24.168;2023-07-24T06:13:19;15.90;99.90
22008;DHT22;11168;56.976;24.168;2023-07-24T06:15:50;15.90;99.90
22008;DHT22;11168;56.976;24.168;2023-07-24T06:18:17;15.90;99.90
22008;DHT22;11168;56.976;24.168;2023-07-24T06:20:47;16.00;99.90
22008;DHT22;11168;56.976;24.168;2023-07-24T06:23:16;16.00;99.90
22008;DHT22;11168;56.976;24.168;2023-07-24T06:25:43;15.90;99.90
22008;DHT22;11168;56.976;24.168;2023-07-24T06:28:10;15.90;99.90
22008;DHT22;11168;56.976;24.168;2023-07-24T06:30:40;16.00;99.90
22008;DHT22;11168;56.976;24.168;2023-07-24T06:33:07;15.90;99.90
22008;DHT22;11168;56.976;24.168;2023-07-24T06:35:35;15.90;99.90
22008;DHT22;11168;56.976;24.168;2023-07-24T06:38:02;15.90;99.90
22008;DHT22;11168;56.976;24.168;2023-07-24T06:40:30;15.90;99.90
22008;DHT22;11168;56.976;24.168;2023-07-24T06:42:57;16.10;99.90
22008;DHT22;11168;56.976;24.168;2023-07-24T06:45:24;16.20;99.90
22008;DHT22;11168;56.976;24.168;2023-07-24T06:47:54;16.20;99.90
22008;DHT22;11168;56.976;24.168;2023-07-24T06:50:21;16.10;99.90
22008;DHT22;11168;56.976;24.168;2023-07-24T06:52:48;16.20;99.90
22008;DHT22;11168;56.976;24.168;2023-07-24T06:55:17;16.20;99.90
22008;DHT22;11168;56.976;24.168;2023-07-24T06:57:44;16.10;99.90
22008;DHT22;11168;56.976;24.168;2023-07-24T07:00:12;16.20;99.90
22008;DHT22;11168;56.976;24.168;2023-07-24T07:02:39;16.30;99.90
22008;DHT22;11168;56.976;24.168;2023-07-24T07:05:08;16.30;99.90
22008;DHT22;11168;56.976;24.168;2023-07-24T07:07:35;16.30;99.90
22008;DHT22;11168;56.976;24.168;2023-07-24T07:10:02;16.30;99.90
22008;DHT22;11168;56.976;24.168;2023-07-24T07:12:29;16.40;99.90
22008;DHT22;11168;56.976;24.168;2023-07-24T07:14:56;16.30;99.90
22008;DHT22;11168;56.976;24.168;2023-07-24T07:17:24;16.40;99.90
22008;DHT22;11168;56.976;24.168;2023-07-24T07:19:52;16.40;99.90
22008;DHT22;11168;56.976;24.168;2023-07-24T07:22:19;16.40;99.90
22008;DHT22;11168;56.976;24.168;2023-07-24T07:24:46;16.60;99.90
22008;DHT22;11168;56.976;24.168;2023-07-24T07:27:14;16.50;99.90
22008;DHT22;11168;56.976;24.168;2023-07-24T07:29:43;16.60;99.90
22008;DHT22;11168;56.976;24.168;2023-07-24T07:32:11;16.60;99.90
22008;DHT22;11168;56.976;24.168;2023-07-24T07:34:38;16.70;99.90
22008;DHT22;11168;56.976;24.168;2023-07-24T07:37:06;16.70;99.90
22008;DHT22;11168;56.976;24.168;2023-07-24T07:39:33;16.70;99.90
22008;DHT22;11168;56.976;24.168;2023-07-24T07:42:00;16.80;99.90
22008;DHT22;11168;56.976;24.168;2023-07-24T07:44:33;17.00;99.90
22008;DHT22;11168;56.976;24.168;2023-07-24T07:47:00;17.20;99.90
22008;DHT22;11168;56.976;24.168;2023-07-24T07:49:27;17.30;99.90
22008;DHT22;11168;56.976;24.168;2023-07-24T07:51:57;17.50;99.90
22008;DHT22;11168;56.976;24.168;2023-07-24T07:54:24;17.60;99.90
22008;DHT22;11168;56.976;24.168;2023-07-24T07:56:50;18.00;99.90
22008;DHT22;11168;56.976;24.168;2023-07-24T07:59:23;18.00;99.90
22008;DHT22;11168;56.976;24.168;2023-07-24T08:01:49;18.10;99.90
22008;DHT22;11168;56.976;24.168;2023-07-24T08:04:17;18.40;99.90
22008;DHT22;11168;56.976;24.168;2023-07-24T08:06:45;18.60;99.90
22008;DHT22;11168;56.976;24.168;2023-07-24T08:09:12;18.60;99.90
22008;DHT22;11168;56.976;24.168;2023-07-24T08:11:39;18.60;99.90
22008;DHT22;11168;56.976;24.168;2023-07-24T08:14:06;18.60;99.90
22008;DHT22;11168;56.976;24.168;2023-07-24T08:16:33;18.30;99.90
22008;DHT22;11168;56.976;24.168;2023-07-24T08:19:00;18.30;99.90
22008;DHT22;11168;56.976;24.168;2023-07-24T08:21:27;18.20;99.90
22008;DHT22;11168;56.976;24.168;2023-07-24T08:23:54;17.90;99.90
22008;DHT22;11168;56.976;24.168;2023-07-24T08:26:22;17.90;99.90
22008;DHT22;11168;56.976;24.168;2023-07-24T08:28:48;18.00;99.90
22008;DHT22;11168;56.976;24.168;2023-07-24T08:31:15;18.20;99.90
22008;DHT22;11168;56.976;24.168;2023-07-24T08:33:42;18.30;99.90
22008;DHT22;11168;56.976;24.168;2023-07-24T08:36:10;18.40;99.90
22008;DHT22;11168;56.976;24.168;2023-07-24T08:38:38;18.40;99.90
22008;DHT22;11168;56.976;24.168;2023-07-24T08:41:10;18.50;99.90
22008;DHT22;11168;56.976;24.168;2023-07-24T08:43:42;18.20;99.90
22008;DHT22;11168;56.976;24.168;2023-07-24T08:46:10;18.10;99.90
22008;DHT22;11168;56.976;24.168;2023-07-24T08:48:40;18.20;99.90
22008;DHT22;11168;56.976;24.168;2023-07-24T08:51:09;18.20;99.90
22008;DHT22;11168;56.976;24.168;2023-07-24T08:53:41;18.50;99.90
22008;DHT22;11168;56.976;24.168;2023-07-24T08:56:10;18.50;99.90
22008;DHT22;11168;56.976;24.168;2023-07-24T08:58:39;18.70;99.90
22008;DHT22;11168;56.976;24.168;2023-07-24T09:01:09;18.90;99.90
22008;DHT22;11168;56.976;24.168;2023-07-24T09:03:36;18.80;99.90
22008;DHT22;11168;56.976;24.168;2023-07-24T09:06:04;18.50;99.90
22008;DHT22;11168;56.976;24.168;2023-07-24T09:08:41;18.60;99.90
22008;DHT22;11168;56.976;24.168;2023-07-24T09:11:09;18.40;99.90
22008;DHT22;11168;56.976;24.168;2023-07-24T09:13:40;18.20;99.90
22008;DHT22;11168;56.976;24.168;2023-07-24T09:16:08;18.10;99.90
22008;DHT22;11168;56.976;24.168;2023-07-24T09:18:42;18.00;99.90
22008;DHT22;11168;56.976;24.168;2023-07-24T09:21:10;17.90;99.90
22008;DHT22;11168;56.976;24.168;2023-07-24T09:23:40;17.90;99.90
22008;DHT22;11168;56.976;24.168;2023-07-24T09:26:10;17.90;99.90
22008;DHT22;11168;56.976;24.168;2023-07-24T09:28:37;18.00;99.90
22008;DHT22;11168;56.976;24.168;2023-07-24T09:31:04;18.00;99.90
22008;DHT22;11168;56.976;24.168;2023-07-24T09:33:40;17.80;99.90
22008;DHT22;11168;56.976;24.168;2023-07-24T09:36:08;17.70;99.90
22008;DHT22;11168;56.976;24.168;2023-07-24T09:38:39;17.70;99.90
22008;DHT22;11168;56.976;24.168;2023-07-24T09:41:07;17.60;99.90
22008;DHT22;11168;56.976;24.168;2023-07-24T09:43:34;17.60;99.90
22008;DHT22;11168;56.976;24.168;2023-07-24T09:46:07;17.60;99.90
22008;DHT22;11168;56.976;24.168;2023-07-24T09:48:36;17.80;99.90
22008;DHT22;11168;56.976;24.168;2023-07-24T09:51:11;18.10;99.90
22008;DHT22;11168;56.976;24.168;2023-07-24T09:53:47;18.20;99.90
22008;DHT22;11168;56.976;24.168;2023-07-24T09:56:18;18.30;99.90
22008;DHT22;11168;56.976;24.168;2023-07-24T09:59:02;18.30;99.90
22008;DHT22;11168;56.976;24.168;2023-07-24T10:01:31;18.60;99.90
22008;DHT22;11168;56.976;24.168;2023-07-24T10:04:01;18.60;99.90
22008;DHT22;11168;56.976;24.168;2023-07-24T10:06:28;18.50;99.90
22008;DHT22;11168;56.976;24.168;2023-07-24T10:08:57;18.50;99.90
22008;DHT22;11168;56.976;24.168;2023-07-24T10:11:25;18.40;99.90
22008;DHT22;11168;56.976;24.168;2023-07-24T10:13:53;18.40;99.90
22008;DHT22;11168;56.976;24.168;2023-07-24T10:16:20;18.30;99.90
22008;DHT22;11168;56.976;24.168;2023-07-24T10:18:47;18.40;99.90
22008;DHT22;11168;56.976;24.168;2023-07-24T10:21:16;18.40;99.90
22008;DHT22;11168;56.976;24.168;2023-07-24T10:23:45;18.30;99.90
22008;DHT22;11168;56.976;24.168;2023-07-24T10:26:13;18.10;99.90
22008;DHT22;11168;56.976;24.168;2023-07-24T10:28:42;17.90;99.90
22008;DHT22;11168;56.976;24.168;2023-07-24T10:31:25;17.90;99.90
22008;DHT22;11168;56.976;24.168;2023-07-24T10:34:04;17.80;99.90
22008;DHT22;11168;56.976;24.168;2023-07-24T10:36:36;17.60;99.90
22008;DHT22;11168;56.976;24.168;2023-07-24T10:39:14;17.50;99.90
22008;DHT22;11168;56.976;24.168;2023-07-24T10:41:41;17.30;99.90
22008;DHT22;11168;56.976;24.168;2023-07-24T10:44:10;17.20;99.90
22008;DHT22;11168;56.976;24.168;2023-07-24T10:46:41;17.10;99.90
22008;DHT22;11168;56.976;24.168;2023-07-24T10:49:11;16.90;99.90
22008;DHT22;11168;56.976;24.168;2023-07-24T10:51:38;16.70;99.90
22008;DHT22;11168;56.976;24.168;2023-07-24T10:54:05;16.70;99.90
22008;DHT22;11168;56.976;24.168;2023-07-24T10:56:33;16.70;99.90
22008;DHT22;11168;56.976;24.168;2023-07-24T10:59:04;16.70;99.90
22008;DHT22;11168;56.976;24.168;2023-07-24T11:01:32;16.60;99.90
22008;DHT22;11168;56.976;24.168;2023-07-24T11:04:00;16.50;99.90
22008;DHT22;11168;56.976;24.168;2023-07-24T11:06:28;16.50;99.90
22008;DHT22;11168;56.976;24.168;2023-07-24T11:08:56;16.50;99.90
22008;DHT22;11168;56.976;24.168;2023-07-24T11:11:31;16.50;99.90
22008;DHT22;11168;56.976;24.168;2023-07-24T11:14:00;16.50;99.90
22008;DHT22;11168;56.976;24.168;2023-07-24T11:16:28;16.50;99.90
22008;DHT22;11168;56.976;24.168;2023-07-24T11:18:58;16.50;99.90
22008;DHT22;11168;56.976;24.168;2023-07-24T11:21:25;16.50;99.90
22008;DHT22;11168;56.976;24.168;2023-07-24T11:23:54;16.50;99.90
22008;DHT22;11168;56.976;24.168;2023-07-24T11:26:22;16.40;99.90
22008;DHT22;11168;56.976;24.168;2023-07-24T11:28:51;16.40;99.90
22008;DHT22;11168;56.976;24.168;2023-07-24T11:31:18;16.40;99.90
22008;DHT22;11168;56.976;24.168;2023-07-24T11:33:49;16.40;99.90
22008;DHT22;11168;56.976;24.168;2023-07-24T11:36:17;16.30;99.90
22008;DHT22;11168;56.976;24.168;2023-07-24T11:38:45;16.30;99.90
22008;DHT22;11168;56.976;24.168;2023-07-24T11:41:13;16.30;99.90
22008;DHT22;11168;56.976;24.168;2023-07-24T11:43:49;16.40;99.90
22008;DHT22;11168;56.976;24.168;2023-07-24T11:46:27;16.40;99.90
22008;DHT22;11168;56.976;24.168;2023-07-24T11:48:55;16.40;99.90
22008;DHT22;11168;56.976;24.168;2023-07-24T11:51:26;16.40;99.90
22008;DHT22;11168;56.976;24.168;2023-07-24T11:54:08;16.30;99.90
22008;DHT22;11168;56.976;24.168;2023-07-24T11:56:38;16.20;99.90
22008;DHT22;11168;56.976;24.168;2023-07-24T11:59:12;16.10;99.90
22008;DHT22;11168;56.976;24.168;2023-07-24T12:01:39;16.00;99.90
22008;DHT22;11168;56.976;24.168;2023-07-24T12:04:06;16.00;99.90
22008;DHT22;11168;56.976;24.168;2023-07-24T12:06:33;15.90;99.90
22008;DHT22;11168;56.976;24.168;2023-07-24T12:09:03;15.80;99.90
22008;DHT22;11168;56.976;24.168;2023-07-24T12:11:31;15.80;99.90
22008;DHT22;11168;56.976;24.168;2023-07-24T12:13:59;15.70;99.90
22008;DHT22;11168;56.976;24.168;2023-07-24T12:16:26;15.70;99.90
22008;DHT22;11168;56.976;24.168;2023-07-24T12:18:54;15.70;99.90
22008;DHT22;11168;56.976;24.168;2023-07-24T12:21:22;15.80;99.90
22008;DHT22;11168;56.976;24.168;2023-07-24T12:23:49;15.80;99.90
22008;DHT22;11168;56.976;24.168;2023-07-24T12:26:16;15.80;99.90
22008;DHT22;11168;56.976;24.168;2023-07-24T12:28:43;15.80;99.90
22008;DHT22;11168;56.976;24.168;2023-07-24T12:31:10;15.70;99.90
22008;DHT22;11168;56.976;24.168;2023-07-24T12:33:37;15.80;99.90
22008;DHT22;11168;56.976;24.168;2023-07-24T12:36:04;15.80;99.90
22008;DHT22;11168;56.976;24.168;2023-07-24T12:38:31;15.90;99.90
22008;DHT22;11168;56.976;24.168;2023-07-24T12:40:58;16.00;99.90
22008;DHT22;11168;56.976;24.168;2023-07-24T12:43:25;16.00;99.90
22008;DHT22;11168;56.976;24.168;2023-07-24T12:45:52;16.00;99.90
22008;DHT22;11168;56.976;24.168;2023-07-24T12:48:19;16.20;99.90
22008;DHT22;11168;56.976;24.168;2023-07-24T12:50:46;16.10;99.90
22008;DHT22;11168;56.976;24.168;2023-07-24T12:53:13;16.00;99.90
22008;DHT22;11168;56.976;24.168;2023-07-24T12:55:45;15.90;99.90
22008;DHT22;11168;56.976;24.168;2023-07-24T12:58:12;15.80;99.90
22008;DHT22;11168;56.976;24.168;2023-07-24T13:00:39;15.90;99.90
22008;DHT22;11168;56.976;24.168;2023-07-24T13:03:06;15.90;99.90
22008;DHT22;11168;56.976;24.168;2023-07-24T13:05:34;16.00;99.90
22008;DHT22;11168;56.976;24.168;2023-07-24T13:08:00;16.10;99.90
22008;DHT22;11168;56.976;24.168;2023-07-24T13:10:28;16.10;99.90
22008;DHT22;11168;56.976;24.168;2023-07-24T13:12:56;16.20;99.90
22008;DHT22;11168;56.976;24.168;2023-07-24T13:15:23;16.20;99.90
22008;DHT22;11168;56.976;24.168;2023-07-24T13:17:50;16.20;99.90
22008;DHT22;11168;56.976;24.168;2023-07-24T13:20:17;16.10;99.90
22008;DHT22;11168;56.976;24.168;2023-07-24T13:22:44;16.20;99.90
22008;DHT22;11168;56.976;24.168;2023-07-24T13:25:13;16.30;99.90
22008;DHT22;11168;56.976;24.168;2023-07-24T13:27:40;16.40;99.90
22008;DHT22;11168;56.976;24.168;2023-07-24T13:30:07;16.40;99.90
22008;DHT22;11168;56.976;24.168;2023-07-24T13:32:34;16.40;99.90
22008;DHT22;11168;56.976;24.168;2023-07-24T13:35:01;16.50;99.90
22008;DHT22;11168;56.976;24.168;2023-07-24T13:37:28;16.50;99.90
22008;DHT22;11168;56.976;24.168;2023-07-24T13:39:55;16.50;99.90
22008;DHT22;11168;56.976;24.168;2023-07-24T13:42:22;16.60;99.90
22008;DHT22;11168;56.976;24.168;2023-07-24T13:44:49;16.60;99.90
22008;DHT22;11168;56.976;24.168;2023-07-24T13:47:17;16.50;99.90
22008;DHT22;11168;56.976;24.168;2023-07-24T13:49:44;16.50;99.90
22008;DHT22;11168;56.976;24.168;2023-07-24T13:52:11;16.60;99.90
22008;DHT22;11168;56.976;24.168;2023-07-24T13:54:38;16.70;99.90
22008;DHT22;11168;56.976;24.168;2023-07-24T13:57:05;16.60;99.90
22008;DHT22;11168;56.976;24.168;2023-07-24T13:59:37;16.80;99.90
22008;DHT22;11168;56.976;24.168;2023-07-24T14:02:06;16.90;99.90
22008;DHT22;11168;56.976;24.168;2023-07-24T14:04:33;16.90;99.90
22008;DHT22;11168;56.976;24.168;2023-07-24T14:07:00;16.90;99.90
22008;DHT22;11168;56.976;24.168;2023-07-24T14:09:27;16.90;99.90
22008;DHT22;11168;56.976;24.168;2023-07-24T14:11:54;17.00;99.90
22008;DHT22;11168;56.976;24.168;2023-07-24T14:14:21;17.10;99.90
22008;DHT22;11168;56.976;24.168;2023-07-24T14:16:50;17.10;99.90
22008;DHT22;11168;56.976;24.168;2023-07-24T14:19:17;17.20;99.90
22008;DHT22;11168;56.976;24.168;2023-07-24T14:21:44;17.40;99.90
22008;DHT22;11168;56.976;24.168;2023-07-24T14:24:11;17.50;99.90
22008;DHT22;11168;56.976;24.168;2023-07-24T14:26:38;17.60;99.90
22008;DHT22;11168;56.976;24.168;2023-07-24T14:29:06;17.60;99.90
22008;DHT22;11168;56.976;24.168;2023-07-24T14:31:33;17.70;99.90
22008;DHT22;11168;56.976;24.168;2023-07-24T14:34:00;17.60;99.90
22008;DHT22;11168;56.976;24.168;2023-07-24T14:36:27;17.60;99.90
22008;DHT22;11168;56.976;24.168;2023-07-24T14:39:06;17.50;99.90
22008;DHT22;11168;56.976;24.168;2023-07-24T14:41:33;17.50;99.90
22008;DHT22;11168;56.976;24.168;2023-07-24T14:44:00;17.40;99.90
22008;DHT22;11168;56.976;24.168;2023-07-24T14:46:27;17.50;99.90
22008;DHT22;11168;56.976;24.168;2023-07-24T14:48:55;17.40;99.90
22008;DHT22;11168;56.976;24.168;2023-07-24T14:51:23;17.40;99.90
22008;DHT22;11168;56.976;24.168;2023-07-24T14:53:51;17.40;99.90
22008;DHT22;11168;56.976;24.168;2023-07-24T14:56:19;17.50;99.90
22008;DHT22;11168;56.976;24.168;2023-07-24T14:58:46;17.40;99.90
22008;DHT22;11168;56.976;24.168;2023-07-24T15:01:13;17.50;99.90
22008;DHT22;11168;56.976;24.168;2023-07-24T15:03:41;17.30;99.90
22008;DHT22;11168;56.976;24.168;2023-07-24T15:06:08;17.20;99.90
22008;DHT22;11168;56.976;24.168;2023-07-24T15:08:35;17.20;99.90
22008;DHT22;11168;56.976;24.168;2023-07-24T15:11:03;17.10;99.90
22008;DHT22;11168;56.976;24.168;2023-07-24T15:13:30;17.00;99.90
22008;DHT22;11168;56.976;24.168;2023-07-24T15:15:59;16.90;99.90
22008;DHT22;11168;56.976;24.168;2023-07-24T15:18:26;17.00;99.90
22008;DHT22;11168;56.976;24.168;2023-07-24T15:20:53;17.20;99.90
22008;DHT22;11168;56.976;24.168;2023-07-24T15:23:20;17.20;99.90